Time;durP1;ratioP1;P1;durP2;ratioP2;P2;SDS_P1;SDS_P2;PMS_P1;PMS_P2;Temp;Humidity;BMP_temperature;BMP_pressure;BME280_temperature;BME280_humidity;BME280_pressure;Samples;Min_cycle;Max_cycle;Signal;HPM_P1;HPM_P2
2023/04/30 00:01:48;;;;;;;31.40;24.45;;;9.00;82.30;;;;;;5011011;28;20140;-74
2023/04/30 00:04:14;;;;;;;30.48;24.55;;;8.90;82.30;;;;;;5011646;28;20170;-77
2023/04/30 00:06:40;;;;;;;31.15;24.77;;;8.90;82.40;;;;;;5013856;28;20042;-76
2023/04/30 00:09:06;;;;;;;31.42;25.40;;;8.90;82.50;;;;;;5010002;28;20048;-78
2023/04/30 00:11:32;;;;;;;31.77;24.63;;;8.80;82.60;;;;;;5002921;28;20534;-74
2023/04/30 00:13:57;;;;;;;32.55;25.77;;;8.90;82.70;;;;;;5008695;28;20343;-77
2023/04/30 00:16:23;;;;;;;32.55;26.33;;;8.80;82.60;;;;;;5012915;28;20041;-77
2023/04/30 00:18:49;;;;;;;34.92;27.25;;;8.80;82.70;;;;;;5008015;28;20096;-78
2023/04/30 00:21:15;;;;;;;44.45;28.13;;;8.70;82.90;;;;;;5013639;28;20056;-76
2023/04/30 00:23:40;;;;;;;34.83;26.63;;;8.60;83.20;;;;;;5012513;28;20033;-80
2023/04/30 00:26:06;;;;;;;33.70;28.17;;;8.50;83.50;;;;;;5018527;28;20025;-81
2023/04/30 00:28:32;;;;;;;31.33;25.92;;;8.60;83.60;;;;;;5022894;28;20029;-78
2023/04/30 00:30:58;;;;;;;34.13;27.83;;;8.60;83.60;;;;;;5013948;28;20032;-76
2023/04/30 00:33:23;;;;;;;31.30;26.40;;;8.60;83.50;;;;;;5013139;28;20533;-77
2023/04/30 00:35:49;;;;;;;33.45;25.63;;;8.60;83.50;;;;;;5014910;28;20026;-75
2023/04/30 00:38:14;;;;;;;32.45;25.88;;;8.60;83.50;;;;;;5011173;28;20030;-76
2023/04/30 00:40:43;;;;;;;34.33;28.35;;;8.60;83.60;;;;;;5008663;28;20486;-77
2023/04/30 00:43:09;;;;;;;38.00;27.95;;;8.50;83.60;;;;;;5004557;28;20034;-77
2023/04/30 00:45:35;;;;;;;33.00;27.00;;;8.40;83.60;;;;;;5010442;28;20516;-80
2023/04/30 00:48:01;;;;;;;34.63;28.23;;;8.40;83.60;;;;;;5008496;28;20655;-75
2023/04/30 00:50:28;;;;;;;34.75;27.45;;;8.40;83.70;;;;;;5015385;28;20041;-78
2023/04/30 00:52:54;;;;;;;36.72;28.55;;;8.40;83.80;;;;;;5007985;28;20619;-76
2023/04/30 00:55:20;;;;;;;36.38;27.92;;;8.30;83.90;;;;;;5014602;28;20018;-77
2023/04/30 00:57:46;;;;;;;34.63;28.95;;;8.30;84.00;;;;;;5009898;28;20030;-75
2023/04/30 01:00:12;;;;;;;34.88;27.33;;;8.30;84.00;;;;;;5011792;28;20101;-76
2023/04/30 01:02:39;;;;;;;34.10;27.63;;;8.30;83.90;;;;;;5008839;28;20044;-76
2023/04/30 01:05:06;;;;;;;32.72;27.65;;;8.30;83.80;;;;;;5009868;28;20049;-77
2023/04/30 01:07:33;;;;;;;32.13;26.65;;;8.30;83.80;;;;;;5009967;28;20030;-77
2023/04/30 01:09:59;;;;;;;34.92;26.98;;;8.30;83.70;;;;;;5012021;28;20019;-76
2023/04/30 01:13:07;;;;;;;38.42;28.92;;;8.30;83.60;;;;;;5009395;28;20484;-77
2023/04/30 01:15:53;;;;;;;34.15;27.98;;;8.30;83.60;;;;;;5004811;28;20029;-78
2023/04/30 01:18:34;;;;;;;36.28;28.13;;;8.20;83.60;;;;;;5009027;28;20130;-76
2023/04/30 01:21:10;;;;;;;31.40;27.38;;;8.20;83.70;;;;;;5011792;28;20041;-80
2023/04/30 01:23:41;;;;;;;32.65;26.42;;;8.10;83.70;;;;;;5006616;28;20094;-81
2023/04/30 01:26:14;;;;;;;32.67;26.70;;;8.10;83.70;;;;;;5012511;28;20033;-76
2023/04/30 01:28:45;;;;;;;32.40;26.52;;;8.00;83.70;;;;;;5008893;28;20017;-77
2023/04/30 01:31:17;;;;;;;33.97;25.92;;;8.00;83.70;;;;;;5003366;28;20420;-76
2023/04/30 01:33:43;;;;;;;33.13;26.90;;;8.00;83.70;;;;;;5009515;28;20038;-78
2023/04/30 01:36:31;;;;;;;33.42;26.63;;;7.90;83.70;;;;;;5016361;28;20033;-76
2023/04/30 01:39:12;;;;;;;31.77;26.23;;;7.90;83.70;;;;;;5009080;28;20053;-76
2023/04/30 01:41:59;;;;;;;31.88;26.52;;;7.90;83.70;;;;;;5003417;28;20038;-76
2023/04/30 01:44:37;;;;;;;32.60;25.75;;;7.90;83.60;;;;;;5012242;28;20485;-77
2023/04/30 01:47:16;;;;;;;35.42;26.35;;;7.80;83.70;;;;;;5004975;28;20053;-77
2023/04/30 01:50:13;;;;;;;33.97;26.42;;;7.80;83.80;;;;;;5008433;28;20455;-77
2023/04/30 01:52:57;;;;;;;30.52;25.17;;;7.80;83.90;;;;;;5008538;28;20029;-76
2023/04/30 01:55:41;;;;;;;35.03;28.23;;;7.80;83.80;;;;;;5011132;28;20088;-76
2023/04/30 01:58:11;;;;;;;36.38;28.00;;;7.80;83.90;;;;;;5008110;28;20046;-76
2023/04/30 02:00:40;;;;;;;37.88;29.52;;;7.80;84.10;;;;;;5009411;28;20030;-76
2023/04/30 02:03:06;;;;;;;35.50;29.10;;;7.80;84.20;;;;;;5006991;28;20458;-78
2023/04/30 02:05:31;;;;;;;33.42;27.15;;;7.80;84.30;;;;;;5015786;28;20026;-78
2023/04/30 02:07:57;;;;;;;37.80;30.17;;;7.70;84.40;;;;;;5004096;28;20033;-76
2023/04/30 02:10:26;;;;;;;37.58;28.55;;;7.70;84.60;;;;;;5007547;28;20041;-76
2023/04/30 02:12:52;;;;;;;37.20;28.27;;;7.80;84.50;;;;;;5012053;28;20037;-78
2023/04/30 02:15:18;;;;;;;36.58;28.42;;;7.70;84.60;;;;;;5003317;28;20032;-76
2023/04/30 02:17:44;;;;;;;36.00;27.65;;;7.70;84.60;;;;;;5011629;28;20124;-76
2023/04/30 02:20:10;;;;;;;34.17;27.65;;;7.80;84.60;;;;;;5012620;28;20022;-80
2023/04/30 02:22:36;;;;;;;32.35;25.70;;;7.80;84.60;;;;;;5015109;28;20048;-77
2023/04/30 02:25:02;;;;;;;35.25;27.23;;;7.70;84.50;;;;;;5012858;28;20029;-75
2023/04/30 02:27:30;;;;;;;33.78;27.10;;;7.70;84.50;;;;;;5008243;28;20079;-76
2023/04/30 02:29:56;;;;;;;33.53;26.77;;;7.70;84.50;;;;;;5018304;28;20496;-75
2023/04/30 02:32:22;;;;;;;36.85;28.63;;;7.70;84.50;;;;;;5013200;28;20061;-76
2023/04/30 02:34:48;;;;;;;34.88;27.10;;;7.70;84.50;;;;;;5007825;28;20073;-75
2023/04/30 02:37:13;;;;;;;34.72;28.02;;;7.70;84.40;;;;;;5016674;28;20032;-78
2023/04/30 02:39:40;;;;;;;30.42;26.20;;;7.70;84.40;;;;;;5006600;28;20116;-80
2023/04/30 02:42:06;;;;;;;32.83;25.65;;;7.60;84.50;;;;;;5012574;28;20057;-75
2023/04/30 02:44:32;;;;;;;32.20;25.83;;;7.70;84.40;;;;;;5009323;28;20022;-79
2023/04/30 02:46:59;;;;;;;34.58;27.85;;;7.70;84.40;;;;;;5010237;28;20072;-75
2023/04/30 02:49:25;;;;;;;33.83;26.58;;;7.60;84.30;;;;;;5000567;28;20430;-74
2023/04/30 02:51:51;;;;;;;35.78;27.23;;;7.60;84.20;;;;;;5018002;28;20031;-77
2023/04/30 02:54:17;;;;;;;37.75;27.95;;;7.60;84.30;;;;;;5005377;28;20026;-80
2023/04/30 02:56:43;;;;;;;31.50;25.10;;;7.60;84.30;;;;;;5006734;28;20038;-77
2023/04/30 02:59:09;;;;;;;34.80;25.38;;;7.60;84.30;;;;;;5004596;28;20343;-79
2023/04/30 03:01:35;;;;;;;33.25;26.83;;;7.60;84.10;;;;;;5011175;28;20030;-75
2023/04/30 03:04:02;;;;;;;35.13;27.63;;;7.60;84.00;;;;;;5007713;28;20037;-74
2023/04/30 03:06:28;;;;;;;35.72;28.08;;;7.50;84.00;;;;;;5012325;28;20048;-75
2023/04/30 03:08:54;;;;;;;33.30;27.10;;;7.50;84.10;;;;;;5009859;28;20609;-75
2023/04/30 03:11:20;;;;;;;35.42;27.65;;;7.40;84.10;;;;;;5005829;28;20454;-77
2023/04/30 03:13:53;;;;;;;33.90;28.17;;;7.50;84.10;;;;;;4999578;28;20022;-77
2023/04/30 03:16:20;;;;;;;33.30;27.58;;;7.50;84.20;;;;;;5005514;28;20077;-77
2023/04/30 03:18:50;;;;;;;33.05;27.58;;;7.50;84.20;;;;;;5001557;28;20019;-78
2023/04/30 03:21:15;;;;;;;36.85;28.15;;;7.50;84.30;;;;;;5009476;28;21628;-76
2023/04/30 03:23:41;;;;;;;36.05;29.42;;;7.40;84.40;;;;;;5010354;28;20033;-75
2023/04/30 03:26:07;;;;;;;42.50;29.65;;;7.40;84.50;;;;;;5010530;28;20114;-80
2023/04/30 03:28:33;;;;;;;37.00;28.45;;;7.40;84.60;;;;;;5006242;28;20108;-76
2023/04/30 03:30:59;;;;;;;38.75;28.95;;;7.40;84.90;;;;;;5005599;28;20116;-76
2023/04/30 03:33:25;;;;;;;36.92;28.88;;;7.30;84.90;;;;;;5011777;28;20029;-75
2023/04/30 03:35:50;;;;;;;35.55;28.70;;;7.30;85.10;;;;;;5006038;28;20996;-75
2023/04/30 03:38:16;;;;;;;37.05;29.52;;;7.30;85.10;;;;;;5012505;28;20018;-76
2023/04/30 03:40:42;;;;;;;34.88;26.88;;;7.30;85.20;;;;;;4995773;28;20030;-77
2023/04/30 03:43:08;;;;;;;38.17;29.45;;;7.30;85.30;;;;;;4998964;28;20034;-76
2023/04/30 03:45:33;;;;;;;37.72;28.95;;;7.30;85.20;;;;;;5007096;28;20030;-76
2023/04/30 03:47:59;;;;;;;37.28;28.45;;;7.20;85.40;;;;;;5009059;28;20053;-75
2023/04/30 03:50:24;;;;;;;36.13;27.88;;;7.20;85.50;;;;;;5008308;28;20114;-77
2023/04/30 03:52:50;;;;;;;34.97;28.70;;;7.20;85.50;;;;;;5005840;28;20433;-76
2023/04/30 03:55:16;;;;;;;35.90;26.48;;;7.20;85.60;;;;;;5012807;28;20049;-78
2023/04/30 03:57:42;;;;;;;34.30;25.83;;;7.20;85.60;;;;;;5014984;28;20132;-79
2023/04/30 04:00:09;;;;;;;32.47;25.48;;;7.20;85.50;;;;;;5015356;28;20049;-76
2023/04/30 04:02:35;;;;;;;35.17;26.95;;;7.20;85.60;;;;;;5007882;28;20482;-74
2023/04/30 04:05:02;;;;;;;34.42;26.25;;;7.10;85.60;;;;;;5011048;28;20025;-76
2023/04/30 04:07:27;;;;;;;33.47;24.95;;;7.10;85.60;;;;;;5017873;28;20046;-77
2023/04/30 04:09:53;;;;;;;32.75;24.48;;;7.10;85.70;;;;;;5014092;28;20083;-74
2023/04/30 04:12:19;;;;;;;34.63;24.52;;;7.10;85.60;;;;;;5011900;28;20041;-74
2023/04/30 04:14:45;;;;;;;33.95;25.40;;;7.20;85.40;;;;;;5010965;28;20087;-78
2023/04/30 04:17:10;;;;;;;35.65;24.55;;;7.20;85.30;;;;;;5011804;28;20032;-76
2023/04/30 04:19:36;;;;;;;36.53;25.38;;;7.10;85.40;;;;;;5007177;28;20056;-78
2023/04/30 04:22:02;;;;;;;33.58;24.95;;;7.10;85.50;;;;;;5014943;28;20075;-79
2023/04/30 04:24:28;;;;;;;34.58;26.00;;;7.10;85.50;;;;;;5010899;28;20053;-81
2023/04/30 04:26:54;;;;;;;35.10;24.75;;;7.10;85.40;;;;;;5008871;28;20045;-76
2023/04/30 04:29:19;;;;;;;30.33;25.10;;;7.20;85.50;;;;;;5010849;28;20356;-79
2023/04/30 04:31:47;;;;;;;31.42;23.40;;;7.20;85.40;;;;;;5011962;28;20085;-74
2023/04/30 04:34:13;;;;;;;30.80;23.38;;;7.30;85.40;;;;;;5009388;28;20469;-77
2023/04/30 04:36:39;;;;;;;30.38;23.45;;;7.30;85.30;;;;;;5017018;28;20065;-75
2023/04/30 04:39:05;;;;;;;31.15;23.90;;;7.30;85.00;;;;;;5007667;28;20393;-75
2023/04/30 04:41:34;;;;;;;32.90;24.67;;;7.40;84.80;;;;;;5011427;28;20026;-76
2023/04/30 04:44:00;;;;;;;33.42;24.77;;;7.40;84.90;;;;;;5011691;28;20113;-77
2023/04/30 04:46:27;;;;;;;33.72;25.55;;;7.40;84.60;;;;;;5013547;28;20046;-77
2023/04/30 04:48:53;;;;;;;28.48;22.95;;;7.50;84.60;;;;;;5010661;28;20050;-79
2023/04/30 04:51:19;;;;;;;32.67;23.83;;;7.50;84.40;;;;;;5012107;28;20030;-76
2023/04/30 04:53:45;;;;;;;32.15;24.08;;;7.60;84.20;;;;;;5011520;28;20037;-76
2023/04/30 04:56:11;;;;;;;33.88;24.00;;;7.60;84.00;;;;;;5014606;28;20469;-75
2023/04/30 04:58:37;;;;;;;30.77;23.58;;;7.60;83.60;;;;;;5012084;28;20109;-78
2023/04/30 05:01:06;;;;;;;30.02;23.35;;;7.60;83.50;;;;;;5016618;28;20137;-76
2023/04/30 05:03:35;;;;;;;31.02;22.60;;;7.60;83.60;;;;;;5016326;28;20026;-76
2023/04/30 05:06:04;;;;;;;29.77;22.10;;;7.60;83.60;;;;;;5020809;28;20320;-76
2023/04/30 05:08:30;;;;;;;28.98;22.45;;;7.70;83.80;;;;;;5012688;28;20050;-75
2023/04/30 05:10:56;;;;;;;29.85;21.92;;;7.70;83.60;;;;;;5015740;28;20060;-74
2023/04/30 05:13:21;;;;;;;28.55;22.75;;;7.80;83.60;;;;;;5007296;28;20030;-76
2023/04/30 05:15:51;;;;;;;27.00;21.63;;;7.90;83.40;;;;;;5015378;28;20592;-78
2023/04/30 05:18:16;;;;;;;29.20;22.63;;;8.00;83.20;;;;;;5011674;28;20057;-77
2023/04/30 05:20:42;;;;;;;28.95;22.08;;;8.10;83.10;;;;;;5007139;28;20038;-76
2023/04/30 05:23:08;;;;;;;31.55;21.50;;;8.10;83.00;;;;;;5012844;28;20026;-75
2023/04/30 05:25:35;;;;;;;29.55;23.48;;;8.10;82.70;;;;;;5012959;28;20466;-76
2023/04/30 05:28:01;;;;;;;31.83;23.83;;;8.10;82.90;;;;;;5011062;28;20156;-81
2023/04/30 05:30:27;;;;;;;28.77;21.95;;;8.20;82.90;;;;;;5009025;28;20686;-78
2023/04/30 05:32:52;;;;;;;31.15;22.65;;;8.30;83.00;;;;;;5009788;28;20034;-77
2023/04/30 05:35:18;;;;;;;30.35;21.60;;;8.40;82.50;;;;;;5012663;28;20034;-81
2023/04/30 05:37:44;;;;;;;29.10;21.17;;;8.40;82.60;;;;;;5010707;28;20037;-76
2023/04/30 05:40:11;;;;;;;27.67;21.15;;;8.40;82.70;;;;;;5004074;28;20157;-78
2023/04/30 05:42:39;;;;;;;31.83;23.77;;;8.50;82.70;;;;;;5005357;28;20038;-75
2023/04/30 05:45:06;;;;;;;32.63;22.00;;;8.60;82.80;;;;;;5010679;28;20091;-78
2023/04/30 05:47:31;;;;;;;25.70;20.05;;;8.70;82.40;;;;;;5007104;28;20052;-77
2023/04/30 05:49:57;;;;;;;32.42;22.30;;;8.70;82.60;;;;;;5011079;28;20021;-78
2023/04/30 05:52:23;;;;;;;28.38;20.88;;;8.90;82.30;;;;;;5007036;28;20115;-77
2023/04/30 05:54:48;;;;;;;26.92;21.48;;;9.00;82.30;;;;;;5008280;28;20458;-76
2023/04/30 05:57:14;;;;;;;28.38;20.58;;;9.10;82.00;;;;;;5010253;28;20061;-78
2023/04/30 05:59:40;;;;;;;27.77;21.27;;;9.20;81.70;;;;;;5008622;28;20097;-81
2023/04/30 06:02:06;;;;;;;26.15;20.60;;;9.30;81.80;;;;;;5009976;28;20041;-78
2023/04/30 06:04:31;;;;;;;24.60;18.90;;;9.40;81.90;;;;;;5013863;28;20041;-75
2023/04/30 06:06:57;;;;;;;25.35;21.02;;;9.60;81.80;;;;;;5012603;28;20037;-76
2023/04/30 06:09:23;;;;;;;25.38;19.50;;;9.70;81.60;;;;;;5011692;28;20546;-82
2023/04/30 06:11:51;;;;;;;23.95;20.20;;;9.70;80.70;;;;;;5010527;28;20133;-78
2023/04/30 06:14:18;;;;;;;24.27;18.90;;;9.90;80.60;;;;;;5009788;28;20049;-77
2023/04/30 06:16:44;;;;;;;24.35;19.17;;;10.10;80.10;;;;;;5012147;28;20025;-77
2023/04/30 06:19:11;;;;;;;24.98;18.38;;;10.10;79.30;;;;;;5011861;28;20188;-75
2023/04/30 06:21:37;;;;;;;24.02;19.25;;;10.10;79.30;;;;;;5010489;28;20116;-75
2023/04/30 06:24:03;;;;;;;25.25;19.60;;;10.20;79.10;;;;;;5016515;28;20501;-75
2023/04/30 06:26:29;;;;;;;27.48;20.10;;;10.30;78.80;;;;;;5006459;28;20041;-77
2023/04/30 06:28:55;;;;;;;23.38;19.42;;;10.40;78.60;;;;;;5001185;28;20320;-75
2023/04/30 06:31:21;;;;;;;25.20;18.38;;;10.50;78.90;;;;;;5009082;28;20023;-75
2023/04/30 06:33:47;;;;;;;24.00;19.60;;;10.60;78.60;;;;;;5016956;28;20393;-74
2023/04/30 06:36:12;;;;;;;25.48;19.55;;;10.70;78.00;;;;;;5005720;28;20037;-78
2023/04/30 06:38:39;;;;;;;26.10;19.25;;;10.80;77.50;;;;;;5012389;28;20065;-73
2023/04/30 06:41:05;;;;;;;24.30;19.15;;;10.90;77.50;;;;;;5006686;28;20034;-75
2023/04/30 06:43:30;;;;;;;27.52;17.88;;;11.10;77.80;;;;;;5010562;28;20099;-79
2023/04/30 06:45:56;;;;;;;25.35;19.27;;;11.20;76.60;;;;;;5006461;28;20437;-78
2023/04/30 06:48:22;;;;;;;23.33;19.08;;;11.30;76.80;;;;;;5013414;28;20032;-75
2023/04/30 06:50:47;;;;;;;24.48;18.50;;;11.50;76.50;;;;;;5005404;28;20022;-76
2023/04/30 06:53:14;;;;;;;23.75;18.00;;;11.50;75.60;;;;;;5013815;28;20041;-76
2023/04/30 06:55:45;;;;;;;25.75;19.90;;;11.60;75.80;;;;;;5012284;28;20029;-78
2023/04/30 06:58:11;;;;;;;27.05;19.10;;;11.70;75.30;;;;;;5008009;28;20048;-79
2023/04/30 07:00:36;;;;;;;23.17;18.38;;;11.90;75.40;;;;;;5006778;28;20022;-79
2023/04/30 07:03:03;;;;;;;23.08;17.90;;;12.10;74.70;;;;;;5010012;28;20346;-75
2023/04/30 07:05:32;;;;;;;23.38;19.10;;;12.20;75.00;;;;;;5001297;28;20025;-74
2023/04/30 07:08:00;;;;;;;22.20;19.13;;;12.60;74.70;;;;;;5005136;28;20091;-74
2023/04/30 07:10:26;;;;;;;22.88;19.25;;;12.60;72.90;;;;;;5001103;28;20031;-76
2023/04/30 07:12:52;;;;;;;22.73;18.75;;;12.70;73.10;;;;;;4997609;28;20041;-77
2023/04/30 07:15:18;;;;;;;24.10;18.70;;;12.80;73.20;;;;;;5005090;28;20020;-76
2023/04/30 07:17:44;;;;;;;23.30;19.48;;;13.00;72.00;;;;;;5011859;28;20069;-76
2023/04/30 07:20:11;;;;;;;24.15;19.33;;;13.10;72.80;;;;;;5002032;28;20531;-79
2023/04/30 07:22:37;;;;;;;24.45;19.05;;;13.20;70.70;;;;;;5003082;28;21277;-78
2023/04/30 07:25:03;;;;;;;26.98;20.02;;;13.40;71.80;;;;;;5002996;28;20409;-77
2023/04/30 07:27:29;;;;;;;29.45;19.77;;;13.40;70.80;;;;;;5005869;28;20040;-75
2023/04/30 07:29:54;;;;;;;22.98;18.33;;;13.50;70.60;;;;;;5007775;28;20022;-75
2023/04/30 07:32:20;;;;;;;26.02;19.67;;;13.60;72.00;;;;;;5012259;28;20076;-75
2023/04/30 07:34:47;;;;;;;25.05;20.33;;;13.90;70.50;;;;;;5013638;28;20029;-75
2023/04/30 07:37:13;;;;;;;24.38;19.55;;;14.00;69.10;;;;;;5009677;28;20492;-74
2023/04/30 07:39:39;;;;;;;29.55;21.30;;;14.00;70.20;;;;;;5013828;28;20018;-77
2023/04/30 07:42:06;;;;;;;23.42;19.25;;;14.20;70.20;;;;;;5010433;28;20042;-80
2023/04/30 07:44:31;;;;;;;24.00;19.20;;;14.40;69.00;;;;;;5014031;28;20018;-80
2023/04/30 07:46:57;;;;;;;25.77;20.00;;;14.40;68.70;;;;;;5012204;28;20135;-78
2023/04/30 07:49:24;;;;;;;25.38;19.42;;;14.50;67.90;;;;;;5029504;28;20045;-82
2023/04/30 07:51:49;;;;;;;28.38;20.25;;;14.60;68.50;;;;;;5016825;28;20034;-83
2023/04/30 07:54:15;;;;;;;24.55;20.23;;;14.40;68.80;;;;;;5015389;28;20041;-80
2023/04/30 07:56:41;;;;;;;23.08;19.92;;;14.70;68.10;;;;;;5014112;28;20117;-79
2023/04/30 07:59:07;;;;;;;26.38;20.23;;;14.90;68.20;;;;;;5012575;28;20025;-79
2023/04/30 08:01:33;;;;;;;24.40;19.58;;;15.20;67.60;;;;;;5012331;28;20471;-79
2023/04/30 08:03:58;;;;;;;25.35;19.95;;;15.00;65.40;;;;;;5018502;28;20091;-78
2023/04/30 08:06:26;;;;;;;26.08;19.50;;;14.90;67.50;;;;;;5018136;28;20033;-78
2023/04/30 08:08:52;;;;;;;25.70;20.27;;;15.30;67.20;;;;;;5018093;28;20022;-77
2023/04/30 08:11:18;;;;;;;26.35;19.95;;;15.20;66.50;;;;;;5016006;28;20405;-77
2023/04/30 08:13:44;;;;;;;24.15;20.73;;;14.90;67.80;;;;;;5011965;28;20029;-78
2023/04/30 08:16:09;;;;;;;25.38;21.05;;;15.20;68.00;;;;;;5010085;28;20045;-78
2023/04/30 08:18:37;;;;;;;26.38;20.13;;;15.40;66.20;;;;;;5013115;28;20029;-78
2023/04/30 08:21:04;;;;;;;26.38;20.95;;;15.50;66.80;;;;;;5012072;28;20034;-77
2023/04/30 08:23:30;;;;;;;24.00;18.42;;;15.50;65.30;;;;;;5018546;28;20040;-76
2023/04/30 08:25:55;;;;;;;24.55;19.83;;;15.60;66.10;;;;;;5014821;28;20258;-78
2023/04/30 08:28:21;;;;;;;26.38;19.98;;;15.50;65.20;;;;;;5014201;28;20025;-77
2023/04/30 08:30:49;;;;;;;26.05;19.73;;;15.60;66.40;;;;;;5031778;28;20025;-78
2023/04/30 08:33:15;;;;;;;26.60;20.45;;;15.80;65.20;;;;;;5022214;28;20061;-78
2023/04/30 08:35:40;;;;;;;26.38;19.65;;;16.10;65.10;;;;;;5014558;28;20061;-79
2023/04/30 08:38:06;;;;;;;25.50;19.63;;;16.20;62.90;;;;;;5019201;28;20022;-78
2023/04/30 08:40:35;;;;;;;22.92;18.55;;;16.30;63.50;;;;;;5010293;28;20025;-76
2023/04/30 08:43:06;;;;;;;22.13;19.00;;;16.40;63.80;;;;;;5011038;28;20489;-76
2023/04/30 08:45:38;;;;;;;21.80;18.00;;;16.70;63.10;;;;;;5011093;28;20106;-76
2023/04/30 08:48:09;;;;;;;24.17;18.88;;;16.90;61.80;;;;;;5007018;28;20057;-76
2023/04/30 08:50:35;;;;;;;25.10;19.40;;;17.20;60.80;;;;;;5006382;28;20025;-78
2023/04/30 08:53:01;;;;;;;21.48;18.73;;;17.30;59.60;;;;;;5011630;28;20109;-76
2023/04/30 08:55:27;;;;;;;22.30;19.45;;;17.50;59.40;;;;;;5010313;28;20018;-78
2023/04/30 08:57:53;;;;;;;24.63;19.67;;;17.40;58.80;;;;;;5003798;28;20124;-77
2023/04/30 09:00:19;;;;;;;22.52;19.35;;;17.20;59.50;;;;;;5010755;28;20077;-78
2023/04/30 09:02:47;;;;;;;21.55;18.80;;;17.30;62.00;;;;;;5006438;28;20045;-76
2023/04/30 09:05:14;;;;;;;24.10;18.58;;;17.50;58.40;;;;;;5004413;28;20034;-77
2023/04/30 09:07:42;;;;;;;22.08;18.88;;;17.60;59.30;;;;;;5013350;28;20049;-74
2023/04/30 09:10:15;;;;;;;21.98;18.40;;;17.80;58.00;;;;;;5005797;28;20048;-73
2023/04/30 09:12:44;;;;;;;22.38;18.75;;;18.00;59.00;;;;;;5012149;28;20056;-75
2023/04/30 09:15:11;;;;;;;23.48;18.80;;;18.10;58.20;;;;;;5012959;28;20332;-75
2023/04/30 09:17:37;;;;;;;23.83;18.83;;;18.20;58.80;;;;;;5010961;28;20205;-75
2023/04/30 09:20:07;;;;;;;22.77;18.33;;;18.00;57.10;;;;;;5006609;28;20018;-74
2023/04/30 09:22:35;;;;;;;20.00;16.65;;;17.60;58.90;;;;;;5010787;28;20046;-75
2023/04/30 09:25:01;;;;;;;18.65;16.67;;;17.80;57.10;;;;;;5008232;28;20120;-74
2023/04/30 09:27:27;;;;;;;19.27;16.02;;;18.20;56.20;;;;;;5006204;28;20262;-75
2023/04/30 09:29:53;;;;;;;19.27;16.50;;;18.30;55.70;;;;;;5009072;28;20026;-76
2023/04/30 09:32:18;;;;;;;20.13;16.23;;;18.60;55.60;;;;;;5011932;28;20586;-73
2023/04/30 09:34:44;;;;;;;21.05;18.13;;;18.60;55.00;;;;;;5011612;28;20088;-75
2023/04/30 09:37:10;;;;;;;21.50;17.85;;;18.40;55.00;;;;;;5006587;28;20102;-75
2023/04/30 09:39:49;;;;;;;20.77;18.02;;;18.20;56.70;;;;;;5003288;28;20517;-76
2023/04/30 09:42:16;;;;;;;22.65;19.08;;;17.70;58.90;;;;;;5005918;28;20022;-74
2023/04/30 09:44:42;;;;;;;23.65;18.75;;;18.10;56.70;;;;;;4999389;28;20033;-74
2023/04/30 09:47:18;;;;;;;19.33;15.75;;;18.20;55.70;;;;;;5000878;28;20046;-74
2023/04/30 09:49:47;;;;;;;23.88;18.10;;;18.60;55.60;;;;;;4999282;28;20032;-75
2023/04/30 09:52:15;;;;;;;22.48;17.77;;;18.80;54.30;;;;;;5002122;28;20042;-75
2023/04/30 09:54:43;;;;;;;20.05;15.93;;;19.00;53.00;;;;;;5003363;28;20018;-73
2023/04/30 09:57:11;;;;;;;18.00;14.75;;;18.80;53.40;;;;;;5003086;28;20113;-75
2023/04/30 09:59:38;;;;;;;21.52;18.27;;;19.20;53.30;;;;;;4997270;28;20689;-74
2023/04/30 10:02:07;;;;;;;19.38;15.88;;;19.10;52.50;;;;;;4998381;28;20034;-75
2023/04/30 10:04:38;;;;;;;19.13;14.90;;;18.80;52.10;;;;;;5008113;28;20037;-75
2023/04/30 10:07:14;;;;;;;21.30;15.95;;;18.70;53.80;;;;;;5015114;28;20045;-75
2023/04/30 10:09:48;;;;;;;20.50;16.25;;;19.10;52.30;;;;;;5005852;28;20045;-75
2023/04/30 10:12:17;;;;;;;21.55;17.25;;;19.20;52.80;;;;;;4996248;28;20030;-75
2023/04/30 10:15:12;;;;;;;18.52;15.70;;;19.30;53.20;;;;;;5005418;28;20465;-74
2023/04/30 10:17:40;;;;;;;20.23;16.35;;;19.50;53.10;;;;;;5003305;28;20034;-75
2023/04/30 10:20:08;;;;;;;19.42;15.07;;;19.50;51.70;;;;;;5009550;28;20116;-75
2023/04/30 10:22:35;;;;;;;18.77;15.57;;;19.50;51.00;;;;;;5011919;28;20390;-73
2023/04/30 10:25:01;;;;;;;20.58;16.38;;;19.60;51.00;;;;;;5001386;28;20109;-74
2023/04/30 10:27:29;;;;;;;21.30;16.13;;;19.90;50.60;;;;;;5002863;28;20030;-74
2023/04/30 10:29:55;;;;;;;18.77;14.52;;;19.80;50.20;;;;;;5002554;28;20315;-73
2023/04/30 10:32:22;;;;;;;17.58;14.93;;;19.50;51.40;;;;;;5006060;28;20060;-78
2023/04/30 10:35:07;;;;;;;19.08;14.85;;;19.60;51.80;;;;;;5015806;28;20025;-74
2023/04/30 10:37:46;;;;;;;17.75;14.50;;;19.90;49.70;;;;;;5006188;28;20040;-75
2023/04/30 10:40:13;;;;;;;17.65;13.82;;;20.20;49.00;;;;;;5003769;28;20028;-73
2023/04/30 10:42:45;;;;;;;18.35;14.73;;;20.40;48.30;;;;;;5001449;28;20367;-75
2023/04/30 10:45:11;;;;;;;16.55;13.65;;;20.50;48.40;;;;;;4994830;28;20030;-75
2023/04/30 10:47:40;;;;;;;16.50;12.77;;;20.60;48.10;;;;;;4998979;28;20061;-75
2023/04/30 10:50:10;;;;;;;15.85;12.38;;;20.40;47.40;;;;;;4998107;28;20025;-75
2023/04/30 10:52:37;;;;;;;13.75;10.50;;;19.50;48.00;;;;;;4997209;28;20037;-76
2023/04/30 10:55:07;;;;;;;15.60;11.45;;;18.90;46.20;;;;;;4994901;28;20030;-74
2023/04/30 10:57:42;;;;;;;17.90;13.70;;;19.10;50.10;;;;;;4996352;28;20037;-74
2023/04/30 11:00:11;;;;;;;15.40;12.38;;;19.60;48.20;;;;;;4997623;28;20480;-75
2023/04/30 11:02:43;;;;;;;15.43;12.13;;;19.80;48.10;;;;;;4994093;28;20502;-76
2023/04/30 11:05:14;;;;;;;13.13;9.75;;;20.20;48.60;;;;;;4988685;28;20230;-74
2023/04/30 11:07:58;;;;;;;13.90;10.15;;;20.40;46.60;;;;;;4995987;28;20389;-75
2023/04/30 11:10:27;;;;;;;13.93;10.40;;;20.50;45.30;;;;;;4997054;28;20195;-74
2023/04/30 11:12:54;;;;;;;15.75;11.50;;;20.60;45.00;;;;;;4999868;28;20199;-74
2023/04/30 11:15:24;;;;;;;12.93;10.20;;;20.60;45.30;;;;;;4999356;28;20028;-77
2023/04/30 11:17:50;;;;;;;15.18;9.80;;;20.70;45.00;;;;;;5005883;28;20041;-77
2023/04/30 11:20:21;;;;;;;13.85;10.90;;;20.90;44.60;;;;;;5008081;28;20385;-76
2023/04/30 11:22:47;;;;;;;13.45;10.32;;;21.10;45.90;;;;;;5006423;28;20065;-77
2023/04/30 11:25:18;;;;;;;16.42;11.77;;;21.30;44.40;;;;;;5002062;28;20028;-75
2023/04/30 11:27:44;;;;;;;15.07;11.68;;;21.30;45.00;;;;;;4994506;28;20030;-75
2023/04/30 11:30:13;;;;;;;14.25;11.70;;;21.30;44.70;;;;;;4996413;28;20022;-76
2023/04/30 11:32:40;;;;;;;13.02;9.38;;;21.40;45.00;;;;;;5004732;28;20045;-74
2023/04/30 11:35:06;;;;;;;13.15;10.48;;;21.50;44.00;;;;;;5007641;28;20060;-74
2023/04/30 11:37:38;;;;;;;12.40;9.68;;;21.20;44.00;;;;;;5006586;28;20029;-75
2023/04/30 11:40:12;;;;;;;12.27;9.32;;;21.10;43.00;;;;;;4999986;28;20026;-76
2023/04/30 11:42:39;;;;;;;;;;;20.90;42.80;;;;;;5005557;28;20096;-75
2023/04/30 11:45:08;;;;;;;10.80;7.63;;;21.10;43.30;;;;;;5003264;28;19905;-76
2023/04/30 11:47:45;;;;;;;12.38;8.50;;;21.60;44.00;;;;;;5007038;28;20050;-75
2023/04/30 11:50:32;;;;;;;12.90;9.20;;;21.50;41.70;;;;;;5007203;28;20591;-75
2023/04/30 11:53:04;;;;;;;15.93;12.13;;;21.60;41.60;;;;;;5003489;28;20432;-75
2023/04/30 11:55:29;;;;;;;18.98;15.57;;;21.50;42.30;;;;;;5007346;28;20424;-74
2023/04/30 11:57:57;;;;;;;19.45;15.10;;;21.60;41.40;;;;;;5008779;28;20030;-76
2023/04/30 12:00:30;;;;;;;13.48;10.15;;;21.60;40.70;;;;;;5007529;28;20022;-75
2023/04/30 12:02:58;;;;;;;12.90;7.47;;;21.80;41.50;;;;;;5007934;28;20497;-74
2023/04/30 12:05:26;;;;;;;11.60;8.45;;;21.70;40.40;;;;;;5004795;28;20050;-75
2023/04/30 12:08:10;;;;;;;11.25;6.65;;;21.60;40.30;;;;;;4993222;28;20467;-76
2023/04/30 12:10:36;;;;;;;10.32;7.10;;;21.50;40.60;;;;;;5003771;28;20030;-76
2023/04/30 12:13:02;;;;;;;10.63;8.02;;;21.80;40.50;;;;;;5006060;28;20034;-75
2023/04/30 12:15:28;;;;;;;13.85;7.90;;;21.70;41.30;;;;;;5007321;28;20461;-76
2023/04/30 12:17:56;;;;;;;10.43;7.82;;;21.30;40.80;;;;;;5008990;28;20034;-76
2023/04/30 12:20:24;;;;;;;10.00;7.00;;;21.60;41.30;;;;;;5009079;28;20064;-75
2023/04/30 12:22:50;;;;;;;10.30;6.97;;;21.80;40.90;;;;;;5009153;28;20050;-75
2023/04/30 12:25:18;;;;;;;10.20;6.72;;;22.00;40.50;;;;;;5006942;28;20104;-75
2023/04/30 12:27:51;;;;;;;9.30;6.88;;;22.10;40.20;;;;;;5012174;28;20057;-75
2023/04/30 12:30:25;;;;;;;12.50;7.28;;;22.10;40.30;;;;;;5007390;28;20026;-75
2023/04/30 12:32:53;;;;;;;11.55;6.80;;;21.50;39.30;;;;;;5002055;28;20574;-76
2023/04/30 12:35:21;;;;;;;16.40;9.68;;;21.30;40.60;;;;;;5010297;28;20516;-75
2023/04/30 12:37:52;;;;;;;11.27;7.15;;;21.10;40.70;;;;;;5002409;28;20042;-76